F/V Berriz Patxiku — ECES — position and weather

sailwx.info

Track history (hours):
 
Tides and Currents Weather Stations Pressure Air Temp Water Temp Dewpoint Dewpoint Depression Visibility Wind Speed Wind Dir Waves Ship Positions

F/V Berriz Patxiku

Last reported at 2015-Sep-02 02:28 UTC. Time now 2015-Sep-02 10:33 UTC.
Position N 43°45' W 006°14'.

Length 30 m.

Type: Fishing. MMSI: 224106260.

Date/timePositionNaut miles runAvg speedWind from/ knotsBaromVisibWave heightAir tempDewpointWater temp
2015-Sep-02 02:28N 43°45' W 006°14'1010.5
2015-Sep-02 01:33N 43°45' W 006°01'1110.8
2015-Sep-02 00:33N 43°44' W 005°46'1110.8
2015-Sep-01 23:33N 43°42' W 005°31'1111.0
2015-Sep-01 22:33N 43°41' W 005°16'135 4.2
2015-Aug-31 14:33N 43°18' W 002°12'0 0.0
2015-Aug-31 13:33N 43°18' W 002°12'2 0.1
2015-Aug-30 21:05N 43°19' W 002°10'0 0.0
2015-Aug-30 20:33N 43°19' W 002°10'  
2015-Aug-26 14:32N 43°18' W 002°12'0 0.0
2015-Aug-26 13:32N 43°18' W 002°12'0 0.0
2015-Aug-26 12:33N 43°18' W 002°12'0 0.0
2015-Aug-26 11:29N 43°18' W 002°12'7 1.1
2015-Aug-26 05:33N 43°20' W 002°20'8 8.0
2015-Aug-26 04:33N 43°20' W 002°09'1 0.6
2015-Aug-26 03:33N 43°19' W 002°10'0 0.1
2015-Aug-26 02:32N 43°19' W 002°09'0 0.0
2015-Aug-26 01:27N 43°19' W 002°09'0 0.0
2015-Aug-26 00:33N 43°19' W 002°09'1 0.1
2015-Aug-25 14:22N 43°19' W 002°10'0 0.1
2015-Aug-25 13:32N 43°19' W 002°10'  
Track history (hours):
 
Tides and Currents Weather Stations Pressure Air Temp Water Temp Dewpoint Dewpoint Depression Visibility Wind Speed Wind Dir Waves Ship Positions

F/V Berriz Patxiku

Last reported at 2015-Sep-02 02:28 UTC. Time now 2015-Sep-02 10:33 UTC.
Position N 43°45' W 006°14'.

Length 30 m.

Type: Fishing. MMSI: 224106260.

Date/timePositionNaut miles runAvg speedWind from/ knotsBaromVisibWave heightAir tempDewpointWater temp
2015-Sep-02 02:28N 43°45' W 006°14'1010.5
2015-Sep-02 01:33N 43°45' W 006°01'1110.8
2015-Sep-02 00:33N 43°44' W 005°46'1110.8
2015-Sep-01 23:33N 43°42' W 005°31'1111.0
2015-Sep-01 22:33N 43°41' W 005°16'135 4.2
2015-Aug-31 14:33N 43°18' W 002°12'0 0.0
2015-Aug-31 13:33N 43°18' W 002°12'2 0.1
2015-Aug-30 21:05N 43°19' W 002°10'0 0.0
2015-Aug-30 20:33N 43°19' W 002°10'  
2015-Aug-26 14:32N 43°18' W 002°12'0 0.0
2015-Aug-26 13:32N 43°18' W 002°12'0 0.0
2015-Aug-26 12:33N 43°18' W 002°12'0 0.0
2015-Aug-26 11:29N 43°18' W 002°12'7 1.1
2015-Aug-26 05:33N 43°20' W 002°20'8 8.0
2015-Aug-26 04:33N 43°20' W 002°09'1 0.6
2015-Aug-26 03:33N 43°19' W 002°10'0 0.1
2015-Aug-26 02:32N 43°19' W 002°09'0 0.0
2015-Aug-26 01:27N 43°19' W 002°09'0 0.0
2015-Aug-26 00:33N 43°19' W 002°09'1 0.1
2015-Aug-25 14:22N 43°19' W 002°10'0 0.1
2015-Aug-25 13:32N 43°19' W 002°10'  

Dump ship's entire track history